sensor_id;sensor_type;location;lat;lon;timestamp;P1;durP1;ratioP1;P2;durP2;ratioP2
64609;SDS011;51019;46.090;6.350;2023-06-19T00:01:10;14.38;;;5.50;;
64609;SDS011;51019;46.090;6.350;2023-06-19T00:03:38;13.02;;;6.07;;
64609;SDS011;51019;46.090;6.350;2023-06-19T00:06:05;14.80;;;6.25;;
64609;SDS011;51019;46.090;6.350;2023-06-19T00:08:37;12.48;;;5.63;;
64609;SDS011;51019;46.090;6.350;2023-06-19T00:11:06;14.02;;;5.93;;
64609;SDS011;51019;46.090;6.350;2023-06-19T00:13:36;12.73;;;5.97;;
64609;SDS011;51019;46.090;6.350;2023-06-19T00:16:06;12.35;;;5.55;;
64609;SDS011;51019;46.090;6.350;2023-06-19T00:18:33;13.25;;;5.78;;
64609;SDS011;51019;46.090;6.350;2023-06-19T00:21:05;13.32;;;5.82;;
64609;SDS011;51019;46.090;6.350;2023-06-19T00:23:32;14.38;;;5.90;;
64609;SDS011;51019;46.090;6.350;2023-06-19T00:26:00;14.50;;;5.95;;
64609;SDS011;51019;46.090;6.350;2023-06-19T00:28:29;13.98;;;5.47;;
64609;SDS011;51019;46.090;6.350;2023-06-19T00:30:59;13.77;;;6.10;;
64609;SDS011;51019;46.090;6.350;2023-06-19T00:33:26;13.95;;;5.88;;
64609;SDS011;51019;46.090;6.350;2023-06-19T00:35:54;12.75;;;5.82;;
64609;SDS011;51019;46.090;6.350;2023-06-19T00:38:22;13.80;;;6.13;;
64609;SDS011;51019;46.090;6.350;2023-06-19T00:40:49;13.57;;;6.03;;
64609;SDS011;51019;46.090;6.350;2023-06-19T00:43:17;14.82;;;6.10;;
64609;SDS011;51019;46.090;6.350;2023-06-19T00:45:45;13.55;;;6.13;;
64609;SDS011;51019;46.090;6.350;2023-06-19T00:48:14;13.52;;;5.90;;
64609;SDS011;51019;46.090;6.350;2023-06-19T00:50:44;14.43;;;6.47;;
64609;SDS011;51019;46.090;6.350;2023-06-19T00:53:11;13.90;;;5.82;;
64609;SDS011;51019;46.090;6.350;2023-06-19T00:55:42;12.98;;;6.22;;
64609;SDS011;51019;46.090;6.350;2023-06-19T00:58:14;13.73;;;5.80;;
64609;SDS011;51019;46.090;6.350;2023-06-19T01:00:43;12.60;;;5.65;;
64609;SDS011;51019;46.090;6.350;2023-06-19T01:03:11;13.32;;;5.65;;
64609;SDS011;51019;46.090;6.350;2023-06-19T01:05:40;13.25;;;5.82;;
64609;SDS011;51019;46.090;6.350;2023-06-19T01:08:09;15.25;;;6.15;;
64609;SDS011;51019;46.090;6.350;2023-06-19T01:10:40;14.80;;;6.13;;
64609;SDS011;51019;46.090;6.350;2023-06-19T01:13:14;14.18;;;5.65;;
64609;SDS011;51019;46.090;6.350;2023-06-19T01:15:47;12.77;;;5.60;;
64609;SDS011;51019;46.090;6.350;2023-06-19T01:18:15;13.18;;;5.55;;
64609;SDS011;51019;46.090;6.350;2023-06-19T01:20:45;12.50;;;5.60;;
64609;SDS011;51019;46.090;6.350;2023-06-19T01:23:14;13.38;;;6.10;;
64609;SDS011;51019;46.090;6.350;2023-06-19T01:25:42;13.25;;;5.85;;
64609;SDS011;51019;46.090;6.350;2023-06-19T01:28:10;14.25;;;5.88;;
64609;SDS011;51019;46.090;6.350;2023-06-19T01:30:40;14.10;;;5.82;;
64609;SDS011;51019;46.090;6.350;2023-06-19T01:33:09;14.02;;;5.82;;
64609;SDS011;51019;46.090;6.350;2023-06-19T01:35:42;12.35;;;5.60;;
64609;SDS011;51019;46.090;6.350;2023-06-19T01:38:14;15.50;;;6.22;;
64609;SDS011;51019;46.090;6.350;2023-06-19T01:40:46;14.50;;;6.65;;
64609;SDS011;51019;46.090;6.350;2023-06-19T01:43:15;13.65;;;6.20;;
64609;SDS011;51019;46.090;6.350;2023-06-19T01:45:44;13.13;;;5.60;;
64609;SDS011;51019;46.090;6.350;2023-06-19T01:48:25;13.85;;;6.80;;
64609;SDS011;51019;46.090;6.350;2023-06-19T01:50:53;13.50;;;6.50;;
64609;SDS011;51019;46.090;6.350;2023-06-19T01:53:22;15.65;;;6.75;;
64609;SDS011;51019;46.090;6.350;2023-06-19T01:55:49;15.13;;;7.20;;
64609;SDS011;51019;46.090;6.350;2023-06-19T01:58:17;13.73;;;6.95;;
64609;SDS011;51019;46.090;6.350;2023-06-19T02:00:45;17.25;;;6.90;;
64609;SDS011;51019;46.090;6.350;2023-06-19T02:03:13;16.42;;;7.15;;
64609;SDS011;51019;46.090;6.350;2023-06-19T02:05:40;14.68;;;6.35;;
64609;SDS011;51019;46.090;6.350;2023-06-19T02:08:08;15.82;;;6.38;;
64609;SDS011;51019;46.090;6.350;2023-06-19T02:10:38;14.05;;;7.30;;
64609;SDS011;51019;46.090;6.350;2023-06-19T02:13:06;17.50;;;7.43;;
64609;SDS011;51019;46.090;6.350;2023-06-19T02:15:36;16.25;;;7.05;;
64609;SDS011;51019;46.090;6.350;2023-06-19T02:18:04;15.25;;;7.00;;
64609;SDS011;51019;46.090;6.350;2023-06-19T02:20:40;16.20;;;7.47;;
64609;SDS011;51019;46.090;6.350;2023-06-19T02:23:07;15.65;;;7.43;;
64609;SDS011;51019;46.090;6.350;2023-06-19T02:25:35;14.85;;;6.82;;
64609;SDS011;51019;46.090;6.350;2023-06-19T02:28:04;14.82;;;7.50;;
64609;SDS011;51019;46.090;6.350;2023-06-19T02:30:31;13.75;;;6.88;;
64609;SDS011;51019;46.090;6.350;2023-06-19T02:32:59;14.48;;;6.95;;
64609;SDS011;51019;46.090;6.350;2023-06-19T02:35:27;15.65;;;6.82;;
64609;SDS011;51019;46.090;6.350;2023-06-19T02:37:54;16.38;;;7.93;;
64609;SDS011;51019;46.090;6.350;2023-06-19T02:40:23;15.35;;;7.38;;
64609;SDS011;51019;46.090;6.350;2023-06-19T02:42:50;14.57;;;7.30;;
64609;SDS011;51019;46.090;6.350;2023-06-19T02:45:20;15.32;;;7.75;;
64609;SDS011;51019;46.090;6.350;2023-06-19T02:47:47;17.75;;;8.30;;
64609;SDS011;51019;46.090;6.350;2023-06-19T02:50:16;15.13;;;7.85;;
64609;SDS011;51019;46.090;6.350;2023-06-19T02:52:44;18.85;;;8.55;;
64609;SDS011;51019;46.090;6.350;2023-06-19T02:55:11;16.83;;;8.50;;
64609;SDS011;51019;46.090;6.350;2023-06-19T02:57:39;15.90;;;8.43;;
64609;SDS011;51019;46.090;6.350;2023-06-19T03:00:06;17.50;;;9.18;;
64609;SDS011;51019;46.090;6.350;2023-06-19T03:02:37;19.20;;;8.13;;
64609;SDS011;51019;46.090;6.350;2023-06-19T03:05:07;16.50;;;8.00;;
64609;SDS011;51019;46.090;6.350;2023-06-19T03:07:37;17.45;;;9.02;;
64609;SDS011;51019;46.090;6.350;2023-06-19T03:10:05;17.02;;;8.30;;
64609;SDS011;51019;46.090;6.350;2023-06-19T03:12:33;16.25;;;8.18;;
64609;SDS011;51019;46.090;6.350;2023-06-19T03:15:00;16.52;;;8.07;;
64609;SDS011;51019;46.090;6.350;2023-06-19T03:17:29;16.08;;;8.18;;
64609;SDS011;51019;46.090;6.350;2023-06-19T03:19:58;18.20;;;8.00;;
64609;SDS011;51019;46.090;6.350;2023-06-19T03:22:26;17.63;;;8.00;;
64609;SDS011;51019;46.090;6.350;2023-06-19T03:24:54;17.00;;;8.25;;
64609;SDS011;51019;46.090;6.350;2023-06-19T03:27:21;17.58;;;8.45;;
64609;SDS011;51019;46.090;6.350;2023-06-19T03:29:51;16.58;;;8.18;;
64609;SDS011;51019;46.090;6.350;2023-06-19T03:32:28;16.60;;;7.95;;
64609;SDS011;51019;46.090;6.350;2023-06-19T03:34:59;17.30;;;8.40;;
64609;SDS011;51019;46.090;6.350;2023-06-19T03:37:38;17.60;;;8.00;;
64609;SDS011;51019;46.090;6.350;2023-06-19T03:40:07;16.13;;;7.65;;
64609;SDS011;51019;46.090;6.350;2023-06-19T03:42:41;15.40;;;7.35;;
64609;SDS011;51019;46.090;6.350;2023-06-19T03:45:09;18.17;;;8.10;;
64609;SDS011;51019;46.090;6.350;2023-06-19T03:47:42;15.27;;;7.93;;
64609;SDS011;51019;46.090;6.350;2023-06-19T03:50:12;15.35;;;8.07;;
64609;SDS011;51019;46.090;6.350;2023-06-19T03:52:41;17.65;;;8.93;;
64609;SDS011;51019;46.090;6.350;2023-06-19T03:55:12;15.25;;;7.90;;
64609;SDS011;51019;46.090;6.350;2023-06-19T03:57:40;16.70;;;8.10;;
64609;SDS011;51019;46.090;6.350;2023-06-19T04:00:09;15.27;;;7.78;;
64609;SDS011;51019;46.090;6.350;2023-06-19T04:02:53;16.17;;;7.80;;
64609;SDS011;51019;46.090;6.350;2023-06-19T04:05:25;15.90;;;8.43;;
64609;SDS011;51019;46.090;6.350;2023-06-19T04:07:56;17.27;;;8.50;;
64609;SDS011;51019;46.090;6.350;2023-06-19T04:10:23;15.57;;;8.35;;
64609;SDS011;51019;46.090;6.350;2023-06-19T04:12:51;16.55;;;8.25;;
64609;SDS011;51019;46.090;6.350;2023-06-19T04:15:20;16.17;;;8.10;;
64609;SDS011;51019;46.090;6.350;2023-06-19T04:17:50;15.77;;;7.43;;
64609;SDS011;51019;46.090;6.350;2023-06-19T04:20:19;15.10;;;7.90;;
64609;SDS011;51019;46.090;6.350;2023-06-19T04:22:52;15.90;;;8.00;;
64609;SDS011;51019;46.090;6.350;2023-06-19T04:25:19;15.65;;;8.45;;
64609;SDS011;51019;46.090;6.350;2023-06-19T04:27:47;18.55;;;8.75;;
64609;SDS011;51019;46.090;6.350;2023-06-19T04:30:15;18.65;;;8.77;;
64609;SDS011;51019;46.090;6.350;2023-06-19T04:32:46;21.50;;;9.27;;
64609;SDS011;51019;46.090;6.350;2023-06-19T04:35:15;19.70;;;8.27;;
64609;SDS011;51019;46.090;6.350;2023-06-19T04:37:43;17.55;;;8.50;;
64609;SDS011;51019;46.090;6.350;2023-06-19T04:40:15;15.77;;;8.07;;
64609;SDS011;51019;46.090;6.350;2023-06-19T04:42:44;18.63;;;8.82;;
64609;SDS011;51019;46.090;6.350;2023-06-19T04:45:19;16.63;;;8.52;;
64609;SDS011;51019;46.090;6.350;2023-06-19T04:47:48;16.95;;;8.35;;
64609;SDS011;51019;46.090;6.350;2023-06-19T04:50:16;17.90;;;8.50;;
64609;SDS011;51019;46.090;6.350;2023-06-19T04:52:44;16.27;;;8.57;;
64609;SDS011;51019;46.090;6.350;2023-06-19T04:55:12;17.55;;;7.85;;
64609;SDS011;51019;46.090;6.350;2023-06-19T04:57:41;14.93;;;7.22;;
64609;SDS011;51019;46.090;6.350;2023-06-19T05:00:09;16.25;;;8.13;;
64609;SDS011;51019;46.090;6.350;2023-06-19T05:02:40;16.17;;;8.00;;
64609;SDS011;51019;46.090;6.350;2023-06-19T05:07:39;17.67;;;8.68;;
64609;SDS011;51019;46.090;6.350;2023-06-19T05:10:07;17.15;;;8.20;;
64609;SDS011;51019;46.090;6.350;2023-06-19T05:12:38;20.98;;;8.20;;
64609;SDS011;51019;46.090;6.350;2023-06-19T05:15:08;15.07;;;7.65;;
64609;SDS011;51019;46.090;6.350;2023-06-19T05:17:37;17.55;;;8.88;;
64609;SDS011;51019;46.090;6.350;2023-06-19T05:20:06;18.00;;;8.25;;
64609;SDS011;51019;46.090;6.350;2023-06-19T05:22:36;16.25;;;8.43;;
64609;SDS011;51019;46.090;6.350;2023-06-19T05:25:08;17.00;;;8.52;;
64609;SDS011;51019;46.090;6.350;2023-06-19T05:27:37;16.30;;;8.85;;
64609;SDS011;51019;46.090;6.350;2023-06-19T05:30:09;17.00;;;8.05;;
64609;SDS011;51019;46.090;6.350;2023-06-19T05:32:37;17.45;;;8.55;;
64609;SDS011;51019;46.090;6.350;2023-06-19T05:35:06;19.17;;;8.38;;
64609;SDS011;51019;46.090;6.350;2023-06-19T05:37:34;17.48;;;9.45;;
64609;SDS011;51019;46.090;6.350;2023-06-19T05:40:03;16.95;;;8.52;;
64609;SDS011;51019;46.090;6.350;2023-06-19T05:42:31;18.67;;;9.00;;
64609;SDS011;51019;46.090;6.350;2023-06-19T05:44:58;16.05;;;8.45;;
64609;SDS011;51019;46.090;6.350;2023-06-19T05:47:28;17.88;;;9.02;;
64609;SDS011;51019;46.090;6.350;2023-06-19T05:49:56;16.77;;;9.23;;
64609;SDS011;51019;46.090;6.350;2023-06-19T05:52:23;18.40;;;9.43;;
64609;SDS011;51019;46.090;6.350;2023-06-19T05:54:54;16.25;;;8.57;;
64609;SDS011;51019;46.090;6.350;2023-06-19T05:57:23;17.88;;;8.25;;
64609;SDS011;51019;46.090;6.350;2023-06-19T05:59:51;17.17;;;9.23;;
64609;SDS011;51019;46.090;6.350;2023-06-19T06:02:20;18.80;;;9.50;;
64609;SDS011;51019;46.090;6.350;2023-06-19T06:04:49;17.50;;;8.32;;
64609;SDS011;51019;46.090;6.350;2023-06-19T06:07:17;18.63;;;8.30;;
64609;SDS011;51019;46.090;6.350;2023-06-19T06:09:44;19.55;;;8.50;;
64609;SDS011;51019;46.090;6.350;2023-06-19T06:12:12;19.55;;;8.80;;
64609;SDS011;51019;46.090;6.350;2023-06-19T06:14:44;19.02;;;8.40;;
64609;SDS011;51019;46.090;6.350;2023-06-19T06:17:12;26.05;;;8.95;;
64609;SDS011;51019;46.090;6.350;2023-06-19T06:19:40;21.50;;;8.52;;
64609;SDS011;51019;46.090;6.350;2023-06-19T06:22:14;20.13;;;8.52;;
64609;SDS011;51019;46.090;6.350;2023-06-19T06:24:44;16.05;;;8.73;;
64609;SDS011;51019;46.090;6.350;2023-06-19T06:27:24;17.23;;;8.75;;
64609;SDS011;51019;46.090;6.350;2023-06-19T06:29:53;17.42;;;9.18;;
64609;SDS011;51019;46.090;6.350;2023-06-19T06:32:20;18.65;;;9.20;;
64609;SDS011;51019;46.090;6.350;2023-06-19T06:34:47;18.17;;;9.10;;
64609;SDS011;51019;46.090;6.350;2023-06-19T06:37:16;15.80;;;7.88;;
64609;SDS011;51019;46.090;6.350;2023-06-19T06:39:47;15.85;;;8.82;;
64609;SDS011;51019;46.090;6.350;2023-06-19T06:42:17;15.70;;;8.35;;
64609;SDS011;51019;46.090;6.350;2023-06-19T06:44:46;16.23;;;8.32;;
64609;SDS011;51019;46.090;6.350;2023-06-19T06:47:14;18.02;;;8.65;;
64609;SDS011;51019;46.090;6.350;2023-06-19T06:49:45;15.80;;;8.25;;
64609;SDS011;51019;46.090;6.350;2023-06-19T06:52:13;17.88;;;8.52;;
64609;SDS011;51019;46.090;6.350;2023-06-19T06:54:43;19.42;;;8.60;;
64609;SDS011;51019;46.090;6.350;2023-06-19T06:57:10;19.25;;;9.05;;
64609;SDS011;51019;46.090;6.350;2023-06-19T06:59:37;19.65;;;9.02;;
64609;SDS011;51019;46.090;6.350;2023-06-19T07:02:06;17.70;;;8.23;;
64609;SDS011;51019;46.090;6.350;2023-06-19T07:04:34;17.88;;;7.55;;
64609;SDS011;51019;46.090;6.350;2023-06-19T07:07:01;20.27;;;8.80;;
64609;SDS011;51019;46.090;6.350;2023-06-19T07:09:31;19.75;;;8.10;;
64609;SDS011;51019;46.090;6.350;2023-06-19T07:11:59;19.73;;;7.45;;
64609;SDS011;51019;46.090;6.350;2023-06-19T07:14:29;19.65;;;8.52;;
64609;SDS011;51019;46.090;6.350;2023-06-19T07:16:59;16.48;;;9.35;;
64609;SDS011;51019;46.090;6.350;2023-06-19T07:19:33;16.15;;;8.25;;
64609;SDS011;51019;46.090;6.350;2023-06-19T07:22:03;16.08;;;7.93;;
64609;SDS011;51019;46.090;6.350;2023-06-19T07:24:40;15.73;;;8.07;;
64609;SDS011;51019;46.090;6.350;2023-06-19T07:27:08;17.35;;;8.27;;
64609;SDS011;51019;46.090;6.350;2023-06-19T07:29:35;18.98;;;8.65;;
64609;SDS011;51019;46.090;6.350;2023-06-19T07:32:06;16.75;;;8.32;;
64609;SDS011;51019;46.090;6.350;2023-06-19T07:34:35;16.95;;;7.80;;
64609;SDS011;51019;46.090;6.350;2023-06-19T07:37:11;21.90;;;8.63;;
64609;SDS011;51019;46.090;6.350;2023-06-19T07:39:53;17.02;;;8.05;;
64609;SDS011;51019;46.090;6.350;2023-06-19T07:42:22;16.02;;;7.82;;
64609;SDS011;51019;46.090;6.350;2023-06-19T07:45:00;15.85;;;7.47;;
64609;SDS011;51019;46.090;6.350;2023-06-19T07:47:28;18.75;;;8.23;;
64609;SDS011;51019;46.090;6.350;2023-06-19T07:49:57;15.98;;;8.50;;
64609;SDS011;51019;46.090;6.350;2023-06-19T07:52:24;19.20;;;8.75;;
64609;SDS011;51019;46.090;6.350;2023-06-19T07:54:55;18.63;;;8.25;;
64609;SDS011;51019;46.090;6.350;2023-06-19T07:57:27;19.25;;;8.30;;
64609;SDS011;51019;46.090;6.350;2023-06-19T07:59:58;15.90;;;8.20;;
64609;SDS011;51019;46.090;6.350;2023-06-19T08:02:32;17.52;;;7.80;;
64609;SDS011;51019;46.090;6.350;2023-06-19T08:05:01;17.42;;;7.93;;
64609;SDS011;51019;46.090;6.350;2023-06-19T08:07:31;17.25;;;8.13;;
64609;SDS011;51019;46.090;6.350;2023-06-19T08:10:01;20.00;;;8.75;;
64609;SDS011;51019;46.090;6.350;2023-06-19T08:12:29;16.20;;;8.10;;
64609;SDS011;51019;46.090;6.350;2023-06-19T08:15:01;15.55;;;7.50;;
64609;SDS011;51019;46.090;6.350;2023-06-19T08:17:30;16.20;;;7.90;;
64609;SDS011;51019;46.090;6.350;2023-06-19T08:19:57;18.58;;;8.35;;
64609;SDS011;51019;46.090;6.350;2023-06-19T08:22:30;15.90;;;7.75;;
64609;SDS011;51019;46.090;6.350;2023-06-19T08:24:57;15.45;;;8.38;;
64609;SDS011;51019;46.090;6.350;2023-06-19T08:27:27;14.40;;;7.40;;
64609;SDS011;51019;46.090;6.350;2023-06-19T08:29:55;15.00;;;7.70;;
64609;SDS011;51019;46.090;6.350;2023-06-19T08:32:23;14.85;;;7.50;;
64609;SDS011;51019;46.090;6.350;2023-06-19T08:34:51;15.30;;;7.68;;
64609;SDS011;51019;46.090;6.350;2023-06-19T08:37:24;18.50;;;7.80;;
64609;SDS011;51019;46.090;6.350;2023-06-19T08:39:53;15.55;;;7.38;;
64609;SDS011;51019;46.090;6.350;2023-06-19T08:42:24;16.40;;;7.22;;
64609;SDS011;51019;46.090;6.350;2023-06-19T08:44:55;15.57;;;7.38;;
64609;SDS011;51019;46.090;6.350;2023-06-19T08:47:28;17.98;;;7.65;;
64609;SDS011;51019;46.090;6.350;2023-06-19T08:49:59;16.88;;;7.40;;
64609;SDS011;51019;46.090;6.350;2023-06-19T08:52:29;19.40;;;8.25;;
64609;SDS011;51019;46.090;6.350;2023-06-19T08:54:59;18.75;;;7.53;;
64609;SDS011;51019;46.090;6.350;2023-06-19T08:57:35;17.02;;;8.35;;
64609;SDS011;51019;46.090;6.350;2023-06-19T09:00:04;17.67;;;7.40;;
64609;SDS011;51019;46.090;6.350;2023-06-19T09:02:42;14.88;;;8.20;;
64609;SDS011;51019;46.090;6.350;2023-06-19T09:05:11;15.02;;;7.30;;
64609;SDS011;51019;46.090;6.350;2023-06-19T09:07:40;18.08;;;8.52;;
64609;SDS011;51019;46.090;6.350;2023-06-19T09:10:15;18.52;;;8.70;;
64609;SDS011;51019;46.090;6.350;2023-06-19T09:12:55;16.00;;;7.68;;
64609;SDS011;51019;46.090;6.350;2023-06-19T09:15:26;14.55;;;7.45;;
64609;SDS011;51019;46.090;6.350;2023-06-19T09:18:00;15.18;;;7.68;;
64609;SDS011;51019;46.090;6.350;2023-06-19T09:20:34;18.70;;;7.75;;
64609;SDS011;51019;46.090;6.350;2023-06-19T09:23:13;17.45;;;7.10;;
64609;SDS011;51019;46.090;6.350;2023-06-19T09:25:47;17.17;;;8.32;;
64609;SDS011;51019;46.090;6.350;2023-06-19T09:28:19;15.98;;;8.18;;
64609;SDS011;51019;46.090;6.350;2023-06-19T09:30:52;18.27;;;6.72;;
64609;SDS011;51019;46.090;6.350;2023-06-19T09:33:21;17.75;;;7.72;;
64609;SDS011;51019;46.090;6.350;2023-06-19T09:35:49;14.60;;;7.38;;
64609;SDS011;51019;46.090;6.350;2023-06-19T09:38:17;17.98;;;7.35;;
64609;SDS011;51019;46.090;6.350;2023-06-19T09:41:01;20.83;;;7.93;;
64609;SDS011;51019;46.090;6.350;2023-06-19T09:43:36;16.00;;;6.95;;
64609;SDS011;51019;46.090;6.350;2023-06-19T09:46:09;15.52;;;7.32;;
64609;SDS011;51019;46.090;6.350;2023-06-19T09:48:40;20.08;;;7.57;;
64609;SDS011;51019;46.090;6.350;2023-06-19T09:51:16;17.83;;;8.30;;
64609;SDS011;51019;46.090;6.350;2023-06-19T09:53:46;15.20;;;7.78;;
64609;SDS011;51019;46.090;6.350;2023-06-19T09:56:16;15.57;;;7.57;;
64609;SDS011;51019;46.090;6.350;2023-06-19T09:58:50;16.27;;;8.02;;
64609;SDS011;51019;46.090;6.350;2023-06-19T10:01:21;15.77;;;7.45;;
64609;SDS011;51019;46.090;6.350;2023-06-19T10:04:00;15.00;;;7.28;;
64609;SDS011;51019;46.090;6.350;2023-06-19T10:06:33;15.77;;;7.78;;
64609;SDS011;51019;46.090;6.350;2023-06-19T10:09:09;16.75;;;8.48;;
64609;SDS011;51019;46.090;6.350;2023-06-19T10:11:44;19.42;;;7.30;;
64609;SDS011;51019;46.090;6.350;2023-06-19T10:14:15;15.95;;;7.30;;
64609;SDS011;51019;46.090;6.350;2023-06-19T10:16:43;17.05;;;7.38;;
64609;SDS011;51019;46.090;6.350;2023-06-19T10:19:12;17.75;;;7.95;;
64609;SDS011;51019;46.090;6.350;2023-06-19T10:21:46;15.00;;;7.82;;
64609;SDS011;51019;46.090;6.350;2023-06-19T10:24:23;16.17;;;8.00;;
64609;SDS011;51019;46.090;6.350;2023-06-19T10:26:55;15.00;;;7.53;;
64609;SDS011;51019;46.090;6.350;2023-06-19T10:29:26;20.67;;;7.60;;
64609;SDS011;51019;46.090;6.350;2023-06-19T10:32:05;14.70;;;7.50;;
64609;SDS011;51019;46.090;6.350;2023-06-19T10:34:34;15.10;;;7.70;;
64609;SDS011;51019;46.090;6.350;2023-06-19T10:37:03;16.05;;;7.50;;
64609;SDS011;51019;46.090;6.350;2023-06-19T10:39:31;15.77;;;7.38;;
64609;SDS011;51019;46.090;6.350;2023-06-19T10:42:04;16.73;;;7.93;;
64609;SDS011;51019;46.090;6.350;2023-06-19T10:44:36;19.33;;;8.07;;
64609;SDS011;51019;46.090;6.350;2023-06-19T10:47:04;18.73;;;7.88;;
64609;SDS011;51019;46.090;6.350;2023-06-19T10:49:35;15.20;;;7.63;;
64609;SDS011;51019;46.090;6.350;2023-06-19T10:52:06;17.50;;;7.87;;
64609;SDS011;51019;46.090;6.350;2023-06-19T10:54:34;18.60;;;7.88;;
64609;SDS011;51019;46.090;6.350;2023-06-19T10:57:04;17.52;;;8.13;;
64609;SDS011;51019;46.090;6.350;2023-06-19T10:59:33;15.82;;;8.43;;
64609;SDS011;51019;46.090;6.350;2023-06-19T11:02:09;18.38;;;8.32;;
64609;SDS011;51019;46.090;6.350;2023-06-19T11:04:37;14.65;;;7.68;;
64609;SDS011;51019;46.090;6.350;2023-06-19T11:07:05;17.23;;;7.90;;
64609;SDS011;51019;46.090;6.350;2023-06-19T11:09:32;16.10;;;8.20;;
64609;SDS011;51019;46.090;6.350;2023-06-19T11:12:02;14.95;;;7.63;;
64609;SDS011;51019;46.090;6.350;2023-06-19T11:14:33;19.65;;;8.13;;
64609;SDS011;51019;46.090;6.350;2023-06-19T11:17:07;17.85;;;8.73;;
64609;SDS011;51019;46.090;6.350;2023-06-19T11:19:35;16.10;;;7.93;;
64609;SDS011;51019;46.090;6.350;2023-06-19T11:22:05;16.67;;;8.15;;
64609;SDS011;51019;46.090;6.350;2023-06-19T11:24:33;15.18;;;7.47;;
64609;SDS011;51019;46.090;6.350;2023-06-19T11:27:01;14.73;;;7.78;;
64609;SDS011;51019;46.090;6.350;2023-06-19T11:29:29;15.38;;;7.55;;
64609;SDS011;51019;46.090;6.350;2023-06-19T11:32:04;15.18;;;7.70;;
64609;SDS011;51019;46.090;6.350;2023-06-19T11:34:39;15.48;;;7.75;;
64609;SDS011;51019;46.090;6.350;2023-06-19T11:37:13;16.73;;;7.90;;
64609;SDS011;51019;46.090;6.350;2023-06-19T11:39:43;15.68;;;7.38;;
64609;SDS011;51019;46.090;6.350;2023-06-19T11:42:17;15.20;;;7.85;;
64609;SDS011;51019;46.090;6.350;2023-06-19T11:44:53;15.00;;;7.53;;
64609;SDS011;51019;46.090;6.350;2023-06-19T11:47:23;16.10;;;7.32;;
64609;SDS011;51019;46.090;6.350;2023-06-19T11:49:52;15.57;;;7.10;;
64609;SDS011;51019;46.090;6.350;2023-06-19T11:52:20;16.77;;;8.38;;
64609;SDS011;51019;46.090;6.350;2023-06-19T11:54:48;16.08;;;7.50;;
64609;SDS011;51019;46.090;6.350;2023-06-19T11:57:16;13.60;;;7.30;;
64609;SDS011;51019;46.090;6.350;2023-06-19T11:59:45;14.35;;;6.53;;
64609;SDS011;51019;46.090;6.350;2023-06-19T12:02:16;13.10;;;6.80;;
64609;SDS011;51019;46.090;6.350;2023-06-19T12:04:47;14.90;;;6.68;;
64609;SDS011;51019;46.090;6.350;2023-06-19T12:07:14;15.52;;;7.43;;
64609;SDS011;51019;46.090;6.350;2023-06-19T12:09:45;18.03;;;7.00;;
64609;SDS011;51019;46.090;6.350;2023-06-19T12:12:14;16.20;;;7.63;;
64609;SDS011;51019;46.090;6.350;2023-06-19T12:14:43;13.95;;;7.07;;
64609;SDS011;51019;46.090;6.350;2023-06-19T12:17:13;13.80;;;6.90;;
64609;SDS011;51019;46.090;6.350;2023-06-19T12:19:41;14.32;;;7.07;;
64609;SDS011;51019;46.090;6.350;2023-06-19T12:22:16;15.27;;;7.00;;
64609;SDS011;51019;46.090;6.350;2023-06-19T12:24:44;14.80;;;7.70;;
64609;SDS011;51019;46.090;6.350;2023-06-19T12:27:12;16.45;;;6.68;;
64609;SDS011;51019;46.090;6.350;2023-06-19T12:29:42;14.65;;;7.13;;
64609;SDS011;51019;46.090;6.350;2023-06-19T12:32:11;16.27;;;7.45;;
64609;SDS011;51019;46.090;6.350;2023-06-19T12:34:39;17.10;;;7.70;;
64609;SDS011;51019;46.090;6.350;2023-06-19T12:37:16;14.23;;;7.13;;
64609;SDS011;51019;46.090;6.350;2023-06-19T12:39:46;15.93;;;7.53;;
64609;SDS011;51019;46.090;6.350;2023-06-19T12:42:13;14.32;;;6.75;;
64609;SDS011;51019;46.090;6.350;2023-06-19T12:44:41;15.52;;;7.90;;
64609;SDS011;51019;46.090;6.350;2023-06-19T12:47:09;20.77;;;8.43;;
64609;SDS011;51019;46.090;6.350;2023-06-19T12:49:37;17.10;;;7.70;;
64609;SDS011;51019;46.090;6.350;2023-06-19T12:52:20;16.10;;;7.57;;
64609;SDS011;51019;46.090;6.350;2023-06-19T12:54:49;16.85;;;7.57;;
64609;SDS011;51019;46.090;6.350;2023-06-19T12:57:16;16.85;;;7.63;;
64609;SDS011;51019;46.090;6.350;2023-06-19T12:59:44;18.20;;;7.55;;
64609;SDS011;51019;46.090;6.350;2023-06-19T13:02:12;16.38;;;7.15;;
64609;SDS011;51019;46.090;6.350;2023-06-19T13:04:40;14.70;;;7.35;;
64609;SDS011;51019;46.090;6.350;2023-06-19T13:07:07;14.65;;;7.07;;
64609;SDS011;51019;46.090;6.350;2023-06-19T13:09:36;15.82;;;6.72;;
64609;SDS011;51019;46.090;6.350;2023-06-19T13:12:04;15.13;;;7.00;;
64609;SDS011;51019;46.090;6.350;2023-06-19T13:14:32;16.73;;;7.88;;
64609;SDS011;51019;46.090;6.350;2023-06-19T13:17:00;13.73;;;6.85;;
64609;SDS011;51019;46.090;6.350;2023-06-19T13:19:28;17.63;;;6.97;;
64609;SDS011;51019;46.090;6.350;2023-06-19T13:21:55;13.40;;;6.75;;
64609;SDS011;51019;46.090;6.350;2023-06-19T13:24:23;15.00;;;6.70;;
64609;SDS011;51019;46.090;6.350;2023-06-19T13:26:55;13.95;;;6.80;;
64609;SDS011;51019;46.090;6.350;2023-06-19T13:29:22;16.98;;;7.70;;
64609;SDS011;51019;46.090;6.350;2023-06-19T13:31:50;16.08;;;7.05;;
64609;SDS011;51019;46.090;6.350;2023-06-19T13:34:19;15.65;;;7.60;;
64609;SDS011;51019;46.090;6.350;2023-06-19T13:36:48;13.75;;;6.70;;
64609;SDS011;51019;46.090;6.350;2023-06-19T13:39:16;16.38;;;7.30;;
64609;SDS011;51019;46.090;6.350;2023-06-19T13:41:44;15.82;;;6.80;;
64609;SDS011;51019;46.090;6.350;2023-06-19T13:44:14;14.07;;;6.63;;
64609;SDS011;51019;46.090;6.350;2023-06-19T13:46:42;15.93;;;7.78;;
64609;SDS011;51019;46.090;6.350;2023-06-19T13:49:14;15.40;;;7.07;;
64609;SDS011;51019;46.090;6.350;2023-06-19T13:51:42;15.20;;;7.85;;
64609;SDS011;51019;46.090;6.350;2023-06-19T13:54:19;15.95;;;7.15;;
64609;SDS011;51019;46.090;6.350;2023-06-19T13:56:48;15.15;;;7.32;;
64609;SDS011;51019;46.090;6.350;2023-06-19T13:59:18;14.93;;;7.35;;
64609;SDS011;51019;46.090;6.350;2023-06-19T14:01:47;14.63;;;7.43;;
64609;SDS011;51019;46.090;6.350;2023-06-19T14:04:17;15.30;;;7.13;;
64609;SDS011;51019;46.090;6.350;2023-06-19T14:06:48;14.90;;;7.03;;
64609;SDS011;51019;46.090;6.350;2023-06-19T14:09:16;14.00;;;6.95;;
64609;SDS011;51019;46.090;6.350;2023-06-19T14:11:44;15.32;;;7.40;;
64609;SDS011;51019;46.090;6.350;2023-06-19T14:14:11;15.40;;;7.45;;
64609;SDS011;51019;46.090;6.350;2023-06-19T14:16:43;13.63;;;6.90;;
64609;SDS011;51019;46.090;6.350;2023-06-19T14:19:10;15.82;;;6.72;;
64609;SDS011;51019;46.090;6.350;2023-06-19T14:21:38;14.13;;;6.93;;
64609;SDS011;51019;46.090;6.350;2023-06-19T14:24:05;14.88;;;7.30;;
64609;SDS011;51019;46.090;6.350;2023-06-19T14:26:34;13.50;;;7.03;;
64609;SDS011;51019;46.090;6.350;2023-06-19T14:29:04;14.43;;;6.78;;
64609;SDS011;51019;46.090;6.350;2023-06-19T14:31:33;13.48;;;6.82;;
64609;SDS011;51019;46.090;6.350;2023-06-19T14:34:05;13.45;;;6.85;;
64609;SDS011;51019;46.090;6.350;2023-06-19T14:36:35;13.83;;;6.77;;
64609;SDS011;51019;46.090;6.350;2023-06-19T14:39:04;16.35;;;7.28;;
64609;SDS011;51019;46.090;6.350;2023-06-19T14:41:31;15.02;;;6.78;;
64609;SDS011;51019;46.090;6.350;2023-06-19T14:43:59;13.13;;;6.50;;
64609;SDS011;51019;46.090;6.350;2023-06-19T14:46:29;14.85;;;6.97;;
64609;SDS011;51019;46.090;6.350;2023-06-19T14:48:57;15.25;;;6.78;;
64609;SDS011;51019;46.090;6.350;2023-06-19T14:51:28;14.23;;;6.65;;